createdAt,value
2022-09-02T00:00:44.065Z,12.58
2022-09-02T00:01:44.080Z,12.53
2022-09-02T00:02:44.126Z,12.54
2022-09-02T00:03:44.047Z,12.50
2022-09-02T00:04:44.040Z,12.53
2022-09-02T00:05:44.043Z,12.49
2022-09-02T00:06:44.027Z,12.37
2022-09-02T00:07:44.050Z,12.29
2022-09-02T00:08:44.009Z,12.21
2022-09-02T00:09:43.999Z,12.22
2022-09-02T00:10:44.000Z,12.28
2022-09-02T00:11:44.052Z,12.29
2022-09-02T00:12:44.005Z,12.32
2022-09-02T00:13:43.974Z,12.28
2022-09-02T00:14:43.966Z,12.31
2022-09-02T00:15:43.967Z,12.31
2022-09-02T00:16:44.065Z,12.31
2022-09-02T00:17:43.968Z,12.39
2022-09-02T00:18:45.701Z,12.47
2022-09-02T00:19:43.930Z,12.36
2022-09-02T00:20:43.918Z,12.40
2022-09-02T00:21:43.908Z,12.42
2022-09-02T00:22:43.927Z,12.50
2022-09-02T00:23:43.906Z,12.40
2022-09-02T00:24:43.888Z,12.47
2022-09-02T00:25:43.882Z,12.54
2022-09-02T00:26:43.878Z,12.58
2022-09-02T00:27:43.893Z,12.60
2022-09-02T00:28:44.282Z,12.61
2022-09-02T00:29:44.831Z,12.60
2022-09-02T00:30:44.835Z,12.61
2022-09-02T00:31:43.911Z,12.55
2022-09-02T00:32:43.864Z,12.55
2022-09-02T00:33:43.833Z,12.57
2022-09-02T00:34:43.837Z,12.50
2022-09-02T00:35:43.799Z,12.55
2022-09-02T00:36:43.799Z,12.61
2022-09-02T00:37:43.777Z,12.61
2022-09-02T00:38:44.801Z,12.61
2022-09-02T00:39:43.771Z,12.64
2022-09-02T00:40:43.837Z,12.79
2022-09-02T00:41:43.753Z,12.62
2022-09-02T00:42:43.749Z,12.67
2022-09-02T00:43:43.766Z,12.64
2022-09-02T00:44:43.724Z,12.62
2022-09-02T00:45:43.759Z,12.64
2022-09-02T00:46:43.733Z,12.65
2022-09-02T00:47:43.729Z,12.70
2022-09-02T00:48:43.700Z,12.62
2022-09-02T00:49:43.694Z,12.70
2022-09-02T00:50:43.682Z,12.67
2022-09-02T00:51:43.666Z,12.78
2022-09-02T00:52:44.689Z,12.76
2022-09-02T00:53:43.658Z,12.73
2022-09-02T00:54:43.652Z,12.78
2022-09-02T00:55:43.648Z,12.73
2022-09-02T00:56:43.639Z,12.72
2022-09-02T00:57:43.653Z,12.79
2022-09-02T00:58:43.627Z,12.76
2022-09-02T00:59:43.615Z,12.72
2022-09-02T01:00:43.737Z,12.79
2022-09-02T01:01:43.656Z,12.75
2022-09-02T01:02:43.627Z,12.83
2022-09-02T01:03:43.575Z,12.78
2022-09-02T01:04:43.577Z,12.68
2022-09-02T01:05:43.963Z,12.60
2022-09-02T01:06:44.557Z,12.55
2022-09-02T01:07:43.576Z,12.57
2022-09-02T01:08:43.548Z,12.57
2022-09-02T01:09:43.534Z,12.62
2022-09-02T01:10:43.534Z,12.57
2022-09-02T01:11:43.524Z,12.62
2022-09-02T01:12:43.543Z,12.61
2022-09-02T01:13:43.551Z,12.65
2022-09-02T01:14:43.498Z,12.58
2022-09-02T01:15:43.490Z,12.61
2022-09-02T01:16:43.550Z,12.61
2022-09-02T01:17:43.511Z,12.64
2022-09-02T01:18:43.467Z,12.67
2022-09-02T01:19:43.453Z,12.58
2022-09-02T01:20:43.455Z,12.58
2022-09-02T01:21:43.447Z,12.54
2022-09-02T01:22:43.465Z,12.64
2022-09-02T01:23:43.431Z,12.61
2022-09-02T01:24:43.429Z,12.62
2022-09-02T01:25:43.422Z,12.57
2022-09-02T01:26:43.415Z,12.54
2022-09-02T01:27:43.428Z,12.49
2022-09-02T01:28:43.396Z,12.47
2022-09-02T01:29:43.387Z,12.50
2022-09-02T01:30:43.377Z,12.50
2022-09-02T01:31:43.419Z,12.55
2022-09-02T01:32:43.396Z,12.50
2022-09-02T01:33:43.445Z,12.55
2022-09-02T01:34:43.345Z,12.54
2022-09-02T01:35:43.344Z,12.50
2022-09-02T01:36:43.329Z,12.47
2022-09-02T01:37:47.387Z,12.47
2022-09-02T01:38:44.314Z,12.50
2022-09-02T01:39:43.369Z,12.53
2022-09-02T01:40:43.376Z,12.42
2022-09-02T01:41:43.293Z,12.47
2022-09-02T01:42:43.286Z,12.46
2022-09-02T01:43:43.306Z,12.45
2022-09-02T01:44:43.266Z,12.45
2022-09-02T01:45:43.260Z,12.47
2022-09-02T01:46:43.319Z,12.53
2022-09-02T01:47:43.271Z,12.46
2022-09-02T01:48:43.240Z,12.55
2022-09-02T01:49:43.227Z,12.54
2022-09-02T01:50:46.766Z,12.60
2022-09-02T01:51:44.225Z,12.57
2022-09-02T01:52:43.199Z,12.68
2022-09-02T01:53:43.438Z,12.62
2022-09-02T01:54:43.191Z,12.79
2022-09-02T01:55:43.183Z,12.70
2022-09-02T01:56:43.177Z,12.79
2022-09-02T01:57:43.171Z,12.72
2022-09-02T01:58:43.416Z,12.75
2022-09-02T01:59:43.151Z,12.65
2022-09-02T02:00:43.158Z,12.79
2022-09-02T02:01:43.175Z,12.64
2022-09-02T02:02:43.312Z,12.64
2022-09-02T02:03:43.147Z,12.82
2022-09-02T02:04:43.114Z,12.80
2022-09-02T02:05:43.106Z,12.73
2022-09-02T02:06:43.098Z,12.73
2022-09-02T02:07:43.103Z,12.68
2022-09-02T02:08:43.106Z,12.68
2022-09-02T02:09:43.074Z,12.67
2022-09-02T02:10:43.083Z,12.70
2022-09-02T02:11:43.053Z,12.61
2022-09-02T02:12:44.053Z,12.60
2022-09-02T02:13:43.156Z,12.54
2022-09-02T02:14:43.044Z,12.50
2022-09-02T02:15:43.029Z,12.53
2022-09-02T02:16:43.025Z,12.46
2022-09-02T02:17:43.022Z,12.49
2022-09-02T02:18:43.044Z,12.47
2022-09-02T02:19:43.004Z,12.42
2022-09-02T02:20:44.882Z,12.53
2022-09-02T02:21:42.979Z,12.55
2022-09-02T02:22:42.987Z,12.54
2022-09-02T02:23:43.023Z,12.50
2022-09-02T02:24:42.967Z,12.42
2022-09-02T02:25:42.965Z,12.47
2022-09-02T02:26:43.000Z,12.49
2022-09-02T02:27:43.566Z,12.50
2022-09-02T02:28:42.965Z,12.45
2022-09-02T02:29:42.926Z,12.46
2022-09-02T02:30:42.928Z,12.50
2022-09-02T02:31:42.945Z,12.46
2022-09-02T02:32:42.905Z,12.47
2022-09-02T02:33:42.935Z,12.32
2022-09-02T02:34:42.897Z,12.43
2022-09-02T02:35:42.886Z,12.43
2022-09-02T02:36:42.877Z,12.43
2022-09-02T02:37:42.871Z,12.43
2022-09-02T02:38:42.889Z,12.45
2022-09-02T02:39:42.860Z,12.45
2022-09-02T02:40:42.878Z,12.45
2022-09-02T02:41:44.875Z,12.46
2022-09-02T02:42:42.842Z,12.39
2022-09-02T02:43:42.854Z,12.31
2022-09-02T02:44:42.822Z,12.32
2022-09-02T02:45:42.817Z,12.36
2022-09-02T02:46:42.978Z,12.42
2022-09-02T02:47:42.794Z,12.42
2022-09-02T02:48:42.811Z,12.35
2022-09-02T02:49:42.781Z,12.24
2022-09-02T02:50:42.770Z,12.36
2022-09-02T02:51:42.766Z,12.49
2022-09-02T02:52:42.765Z,12.50
2022-09-02T02:53:42.783Z,12.50
2022-09-02T02:54:42.741Z,12.58
2022-09-02T02:55:42.734Z,12.54
2022-09-02T02:56:42.728Z,12.61
2022-09-02T02:57:42.727Z,12.72
2022-09-02T02:58:42.744Z,12.62
2022-09-02T02:59:42.709Z,12.67
2022-09-02T03:00:42.712Z,12.73
2022-09-02T03:01:42.733Z,12.70
2022-09-02T03:02:42.804Z,12.80
2022-09-02T03:03:42.677Z,12.64
2022-09-02T03:04:42.698Z,12.72
2022-09-02T03:05:42.655Z,12.70
2022-09-02T03:06:42.654Z,12.53
2022-09-02T03:07:42.659Z,12.45
2022-09-02T03:08:42.639Z,12.50
2022-09-02T03:09:42.667Z,12.55
2022-09-02T03:10:42.630Z,12.55
2022-09-02T03:11:42.611Z,12.72
2022-09-02T03:12:42.604Z,12.65
2022-09-02T03:13:42.595Z,12.67
2022-09-02T03:14:42.626Z,12.76
2022-09-02T03:15:42.621Z,12.73
2022-09-02T03:16:42.598Z,12.79
2022-09-02T03:17:42.570Z,12.72
2022-09-02T03:18:42.600Z,12.75
2022-09-02T03:19:42.578Z,12.82
2022-09-02T03:20:42.551Z,12.86
2022-09-02T03:21:42.539Z,12.87
2022-09-02T03:22:42.527Z,12.83
2022-09-02T03:23:42.533Z,12.80
2022-09-02T03:24:42.538Z,12.98
2022-09-02T03:25:42.503Z,12.98
2022-09-02T03:26:42.498Z,13.11
2022-09-02T03:27:42.492Z,12.97
2022-09-02T03:28:42.480Z,12.97
2022-09-02T03:29:42.501Z,13.08
2022-09-02T03:30:42.476Z,13.12
2022-09-02T03:31:42.487Z,13.19
2022-09-02T03:32:42.454Z,13.23
2022-09-02T03:33:42.443Z,13.25
2022-09-02T03:34:42.469Z,13.31
2022-09-02T03:35:42.438Z,13.30
2022-09-02T03:36:42.416Z,13.35
2022-09-02T03:37:42.423Z,13.30
2022-09-02T03:38:42.427Z,13.28
2022-09-02T03:39:42.430Z,13.23
2022-09-02T03:40:42.485Z,13.31
2022-09-02T03:41:42.406Z,13.31
2022-09-02T03:42:42.375Z,13.41
2022-09-02T03:43:42.368Z,13.35
2022-09-02T03:44:42.388Z,13.35
2022-09-02T03:45:42.385Z,13.31
2022-09-02T03:46:42.338Z,13.38
2022-09-02T03:47:42.333Z,13.42
2022-09-02T03:48:42.352Z,13.39
2022-09-02T03:49:43.802Z,13.35
2022-09-02T03:50:42.310Z,13.33
2022-09-02T03:51:42.307Z,13.39
2022-09-02T03:52:42.297Z,13.39
2022-09-02T03:53:42.289Z,13.42
2022-09-02T03:54:42.306Z,13.46
2022-09-02T03:55:42.269Z,13.38
2022-09-02T03:56:42.267Z,13.39
2022-09-02T03:57:42.253Z,13.46
2022-09-02T03:58:42.266Z,13.54
2022-09-02T03:59:42.271Z,13.53
2022-09-02T04:00:42.235Z,13.47
2022-09-02T04:01:42.264Z,13.46
2022-09-02T04:02:42.287Z,13.44
2022-09-02T04:03:42.215Z,13.42
2022-09-02T04:04:42.242Z,13.44
2022-09-02T04:05:42.191Z,13.50
2022-09-02T04:06:42.188Z,13.50
2022-09-02T04:07:42.183Z,13.52
2022-09-02T04:08:42.170Z,13.49
2022-09-02T04:09:46.465Z,13.52
2022-09-02T04:10:43.154Z,13.52
2022-09-02T04:11:42.145Z,13.50
2022-09-02T04:12:42.142Z,13.60
2022-09-02T04:13:42.133Z,13.50
2022-09-02T04:14:42.152Z,13.57
2022-09-02T04:15:42.130Z,13.59
2022-09-02T04:16:42.108Z,13.47
2022-09-02T04:17:42.095Z,13.47
2022-09-02T04:18:42.084Z,13.41
2022-09-02T04:19:42.105Z,13.50
2022-09-02T04:20:42.070Z,13.53
2022-09-02T04:21:42.077Z,13.56
2022-09-02T04:22:42.045Z,13.50
2022-09-02T04:23:43.053Z,13.53
2022-09-02T04:24:42.076Z,13.49
2022-09-02T04:25:42.039Z,13.53
2022-09-02T04:26:45.219Z,13.54
2022-09-02T04:27:42.022Z,13.54
2022-09-02T04:28:42.047Z,13.70
2022-09-02T04:29:42.031Z,13.60
2022-09-02T04:30:41.998Z,13.65
2022-09-02T04:31:42.035Z,13.59
2022-09-02T04:32:41.980Z,13.62
2022-09-02T04:33:41.972Z,13.59
2022-09-02T04:34:41.989Z,13.62
2022-09-02T04:35:41.966Z,13.59
2022-09-02T04:36:41.957Z,13.62
2022-09-02T04:37:41.940Z,13.65
2022-09-02T04:38:41.935Z,13.62
2022-09-02T04:39:41.955Z,13.60
2022-09-02T04:40:42.062Z,13.54
2022-09-02T04:41:41.916Z,13.59
2022-09-02T04:42:41.911Z,13.65
2022-09-02T04:43:41.899Z,13.59
2022-09-02T04:44:41.920Z,13.52
2022-09-02T04:45:41.889Z,13.57
2022-09-02T04:46:41.903Z,13.54
2022-09-02T04:47:41.865Z,13.56
2022-09-02T04:48:41.863Z,13.60
2022-09-02T04:49:41.878Z,13.53
2022-09-02T04:50:41.844Z,13.41
2022-09-02T04:51:41.843Z,13.49
2022-09-02T04:52:41.832Z,13.50
2022-09-02T04:53:41.829Z,13.65
2022-09-02T04:54:41.834Z,13.57
2022-09-02T04:55:41.809Z,13.44
2022-09-02T04:56:41.790Z,13.54
2022-09-02T04:57:41.786Z,13.56
2022-09-02T04:58:41.774Z,13.54
2022-09-02T04:59:41.806Z,13.53
2022-09-02T05:00:41.765Z,13.46
2022-09-02T05:01:41.844Z,13.44
2022-09-02T05:02:41.822Z,13.52
2022-09-02T05:03:41.749Z,13.54
2022-09-02T05:04:41.757Z,13.52
2022-09-02T05:05:41.729Z,13.49
2022-09-02T05:06:44.286Z,13.46
2022-09-02T05:07:42.736Z,13.54
2022-09-02T05:08:41.706Z,13.54
2022-09-02T05:09:41.721Z,13.50
2022-09-02T05:10:41.700Z,13.53
2022-09-02T05:11:41.680Z,13.41
2022-09-02T05:12:41.679Z,13.46
2022-09-02T05:13:41.667Z,13.41
2022-09-02T05:14:41.656Z,13.42
2022-09-02T05:15:41.709Z,13.38
2022-09-02T05:16:41.642Z,13.35
2022-09-02T05:17:41.636Z,13.38
2022-09-02T05:18:41.628Z,13.44
2022-09-02T05:19:41.632Z,13.42
2022-09-02T05:20:41.641Z,13.50
2022-09-02T05:21:41.609Z,13.47
2022-09-02T05:22:41.650Z,13.52
2022-09-02T05:23:41.592Z,13.39
2022-09-02T05:24:41.578Z,13.46
2022-09-02T05:25:41.604Z,13.52
2022-09-02T05:26:41.566Z,13.57
2022-09-02T05:27:41.562Z,13.52
2022-09-02T05:28:41.553Z,13.53
2022-09-02T05:29:45.216Z,13.57
2022-09-02T05:30:42.617Z,13.54
2022-09-02T05:31:41.532Z,13.56
2022-09-02T05:32:41.538Z,13.53
2022-09-02T05:33:41.516Z,13.65
2022-09-02T05:34:41.498Z,13.83
2022-09-02T05:35:43.253Z,13.81
2022-09-02T05:36:42.088Z,13.90
2022-09-02T05:37:41.497Z,13.81
2022-09-02T05:38:41.476Z,13.72
2022-09-02T05:39:41.474Z,13.60
2022-09-02T05:40:41.579Z,13.79
2022-09-02T05:41:41.467Z,13.81
2022-09-02T05:42:41.447Z,13.89
2022-09-02T05:43:41.449Z,13.89
2022-09-02T05:44:41.444Z,13.99
2022-09-02T05:45:41.495Z,13.99
2022-09-02T05:46:44.451Z,14.05
2022-09-02T05:47:42.407Z,14.11
2022-09-02T05:48:41.398Z,14.17
2022-09-02T05:49:41.388Z,14.29
2022-09-02T05:50:41.413Z,14.17
2022-09-02T05:51:41.382Z,14.29
2022-09-02T05:52:41.368Z,14.25
2022-09-02T05:53:41.363Z,14.11
2022-09-02T05:54:41.350Z,13.93
2022-09-02T05:55:41.374Z,13.87
2022-09-02T05:56:44.997Z,13.92
2022-09-02T05:57:41.335Z,13.92
2022-09-02T05:58:41.328Z,14.00
2022-09-02T05:59:41.311Z,14.04
2022-09-02T06:00:41.340Z,14.08
2022-09-02T06:01:41.354Z,14.12
2022-09-02T06:02:41.350Z,14.10
2022-09-02T06:03:41.283Z,14.11
2022-09-02T06:04:41.276Z,14.10
2022-09-02T06:05:41.296Z,14.14
2022-09-02T06:06:41.260Z,14.29
2022-09-02T06:07:41.255Z,14.28
2022-09-02T06:08:41.249Z,14.26
2022-09-02T06:09:41.248Z,14.28
2022-09-02T06:10:41.259Z,14.14
2022-09-02T06:11:41.230Z,14.28
2022-09-02T06:12:42.764Z,14.26
2022-09-02T06:13:42.214Z,14.30
2022-09-02T06:14:41.200Z,14.43
2022-09-02T06:15:41.235Z,14.36
2022-09-02T06:16:41.185Z,14.41
2022-09-02T06:17:41.170Z,14.35
2022-09-02T06:18:41.172Z,14.40
2022-09-02T06:19:41.160Z,14.37
2022-09-02T06:20:41.184Z,14.36
2022-09-02T06:21:41.157Z,14.50
2022-09-02T06:22:41.136Z,14.48
2022-09-02T06:23:41.129Z,14.54
2022-09-02T06:24:41.133Z,14.48
2022-09-02T06:25:41.136Z,14.45
2022-09-02T06:26:41.109Z,14.45
2022-09-02T06:27:41.097Z,14.55
2022-09-02T06:28:41.097Z,14.58
2022-09-02T06:29:41.089Z,14.65
2022-09-02T06:30:41.155Z,14.72
2022-09-02T06:31:41.070Z,14.60
2022-09-02T06:32:41.056Z,14.65
2022-09-02T06:33:41.050Z,14.69
2022-09-02T06:34:41.056Z,14.73
2022-09-02T06:35:41.067Z,14.69
2022-09-02T06:36:41.032Z,14.72
2022-09-02T06:37:41.020Z,14.84
2022-09-02T06:38:45.246Z,14.81
2022-09-02T06:39:42.016Z,14.79
2022-09-02T06:40:41.088Z,14.82
2022-09-02T06:41:40.989Z,14.86
2022-09-02T06:42:40.988Z,14.84
2022-09-02T06:43:42.652Z,14.92
2022-09-02T06:44:40.968Z,14.94
2022-09-02T06:45:40.987Z,15.04
2022-09-02T06:46:40.984Z,14.92
2022-09-02T06:47:40.940Z,15.02
2022-09-02T06:48:40.948Z,15.03
2022-09-02T06:49:40.933Z,14.97
2022-09-02T06:50:40.945Z,14.94
2022-09-02T06:51:40.974Z,14.89
2022-09-02T06:52:40.912Z,14.88
2022-09-02T06:53:40.915Z,14.91
2022-09-02T06:54:40.887Z,15.03
2022-09-02T06:55:40.909Z,15.00
2022-09-02T06:56:40.868Z,15.22
2022-09-02T06:57:40.862Z,15.14
2022-09-02T06:58:40.853Z,14.99
2022-09-02T06:59:40.850Z,15.04
2022-09-02T07:00:40.862Z,15.14
2022-09-02T07:01:41.098Z,15.18
2022-09-02T07:02:40.830Z,15.28
2022-09-02T07:03:40.828Z,15.04
2022-09-02T07:04:40.807Z,15.02
2022-09-02T07:05:40.833Z,15.15
2022-09-02T07:06:40.793Z,15.27
2022-09-02T07:07:40.799Z,15.19
2022-09-02T07:08:40.788Z,15.27
2022-09-02T07:09:40.785Z,15.19
2022-09-02T07:10:40.810Z,15.24
2022-09-02T07:11:40.763Z,15.28
2022-09-02T07:12:40.758Z,15.44
2022-09-02T07:13:40.747Z,15.33
2022-09-02T07:14:40.743Z,15.31
2022-09-02T07:15:40.762Z,15.39
2022-09-02T07:16:40.783Z,15.44
2022-09-02T07:17:40.716Z,15.43
2022-09-02T07:18:40.713Z,15.49
2022-09-02T07:19:40.706Z,15.55
2022-09-02T07:20:40.731Z,15.59
2022-09-02T07:21:40.690Z,15.40
2022-09-02T07:22:40.725Z,15.51
2022-09-02T07:23:41.204Z,15.43
2022-09-02T07:24:41.668Z,15.58
2022-09-02T07:25:40.688Z,15.67
2022-09-02T07:26:40.655Z,15.68
2022-09-02T07:27:40.652Z,15.62
2022-09-02T07:28:40.635Z,15.67
2022-09-02T07:29:40.628Z,15.64
2022-09-02T07:30:40.712Z,15.79
2022-09-02T07:31:40.621Z,15.79
2022-09-02T07:32:40.619Z,15.77
2022-09-02T07:33:40.604Z,15.61
2022-09-02T07:34:40.597Z,15.62
2022-09-02T07:35:40.635Z,15.68
2022-09-02T07:36:40.588Z,15.70
2022-09-02T07:37:40.579Z,15.76
2022-09-02T07:38:40.590Z,15.75
2022-09-02T07:39:40.577Z,15.65
2022-09-02T07:40:40.579Z,15.77
2022-09-02T07:41:40.584Z,15.80
2022-09-02T07:42:40.558Z,15.82
2022-09-02T07:43:40.534Z,15.83
2022-09-02T07:44:40.516Z,16.01
2022-09-02T07:45:40.538Z,15.91
2022-09-02T07:46:40.532Z,15.95
2022-09-02T07:47:40.498Z,16.08
2022-09-02T07:48:40.495Z,16.12
2022-09-02T07:50:42.484Z,16.23
2022-09-02T07:51:40.501Z,16.38
2022-09-02T07:52:40.462Z,16.24
2022-09-02T07:53:40.463Z,16.28
2022-09-02T07:54:40.448Z,16.28
2022-09-02T07:55:40.475Z,16.26
2022-09-02T07:56:40.461Z,16.29
2022-09-02T07:57:40.431Z,16.36
2022-09-02T07:58:40.429Z,16.31
2022-09-02T07:59:40.417Z,16.41
2022-09-02T08:00:40.412Z,16.39
2022-09-02T08:02:40.550Z,16.50
2022-09-02T08:03:40.381Z,16.36
2022-09-02T08:04:40.381Z,16.38
2022-09-02T08:05:40.377Z,16.64
2022-09-02T08:06:40.395Z,16.64
2022-09-02T08:07:40.349Z,16.65
2022-09-02T08:08:40.362Z,16.53
2022-09-02T08:09:40.347Z,16.69
2022-09-02T08:10:40.331Z,16.64
2022-09-02T08:11:40.348Z,16.56
2022-09-02T08:12:40.328Z,16.72
2022-09-02T08:13:40.309Z,16.50
2022-09-02T08:14:40.301Z,16.69
2022-09-02T08:15:40.306Z,16.83
2022-09-02T08:16:40.382Z,16.71
2022-09-02T08:17:40.327Z,16.97
2022-09-02T08:18:40.287Z,16.90
2022-09-02T08:19:40.274Z,17.09
2022-09-02T08:20:40.258Z,17.01
2022-09-02T08:21:40.285Z,16.96
2022-09-02T08:22:40.251Z,17.14
2022-09-02T08:23:40.510Z,17.06
2022-09-02T08:24:40.220Z,17.26
2022-09-02T08:25:40.219Z,17.48
2022-09-02T08:26:40.236Z,17.71
2022-09-02T08:27:40.218Z,17.71
2022-09-02T08:28:40.201Z,17.78
2022-09-02T08:29:40.222Z,17.68
2022-09-02T08:30:40.177Z,17.95
2022-09-02T08:31:40.286Z,18.03
2022-09-02T08:32:40.163Z,17.95
2022-09-02T08:33:40.168Z,17.97
2022-09-02T08:34:40.148Z,17.64
2022-09-02T08:35:40.144Z,17.83
2022-09-02T08:36:40.166Z,17.82
2022-09-02T08:37:41.174Z,18.04
2022-09-02T08:38:40.142Z,18.18
2022-09-02T08:39:40.120Z,18.20
2022-09-02T08:40:40.161Z,18.23
2022-09-02T08:41:40.140Z,18.18
2022-09-02T08:42:40.085Z,18.53
2022-09-02T08:43:40.130Z,18.43
2022-09-02T08:44:40.113Z,18.29
2022-09-02T08:45:40.123Z,18.44
2022-09-02T08:46:40.081Z,18.47
2022-09-02T08:47:40.045Z,18.80
2022-09-02T08:48:40.036Z,18.88
2022-09-02T08:49:40.036Z,18.95
2022-09-02T08:50:40.023Z,18.95
2022-09-02T08:51:40.079Z,19.11
2022-09-02T08:52:40.004Z,18.99
2022-09-02T08:53:40.006Z,18.65
2022-09-02T08:54:40.035Z,18.84
2022-09-02T08:55:39.985Z,19.11
2022-09-02T08:56:40.002Z,18.81
2022-09-02T08:57:43.444Z,18.95
2022-09-02T08:58:39.968Z,19.00
2022-09-02T09:00:41.034Z,18.98
2022-09-02T09:01:39.968Z,19.21
2022-09-02T09:02:43.380Z,19.58
2022-09-02T09:03:41.923Z,19.37
2022-09-02T09:04:39.914Z,19.34
2022-09-02T09:05:39.921Z,19.66
2022-09-02T09:06:39.932Z,19.71
2022-09-02T09:07:39.901Z,19.88
2022-09-02T09:08:39.885Z,20.13
2022-09-02T09:09:39.910Z,20.36
2022-09-02T09:10:39.877Z,20.52
2022-09-02T09:11:39.896Z,20.69
2022-09-02T09:12:39.855Z,20.51
2022-09-02T09:13:41.541Z,20.22
2022-09-02T09:14:40.836Z,20.32
2022-09-02T09:15:39.833Z,20.29
2022-09-02T09:16:39.901Z,20.41
2022-09-02T09:17:39.824Z,20.39
2022-09-02T09:18:39.807Z,20.50
2022-09-02T09:19:39.802Z,20.51
2022-09-02T09:20:39.793Z,20.43
2022-09-02T09:21:39.812Z,20.51
2022-09-02T09:22:39.786Z,20.44
2022-09-02T09:23:39.778Z,20.26
2022-09-02T09:24:39.801Z,20.40
2022-09-02T09:25:39.774Z,20.44
2022-09-02T09:26:39.790Z,20.77
2022-09-02T09:27:39.752Z,20.78
2022-09-02T09:28:39.717Z,20.77
2022-09-02T09:29:40.749Z,20.90
2022-09-02T09:30:39.726Z,20.95
2022-09-02T09:31:39.804Z,21.20
2022-09-02T09:32:39.719Z,21.29
2022-09-02T09:33:39.691Z,21.18
2022-09-02T09:34:39.689Z,21.20
2022-09-02T09:35:39.662Z,21.30
2022-09-02T09:36:40.708Z,21.50
2022-09-02T09:37:39.672Z,21.36
2022-09-02T09:38:39.660Z,21.39
2022-09-02T09:39:39.649Z,21.48
2022-09-02T09:40:39.676Z,21.57
2022-09-02T09:41:39.627Z,21.98
2022-09-02T09:42:39.677Z,22.30
2022-09-02T09:43:39.615Z,22.63
2022-09-02T09:44:39.638Z,22.10
2022-09-02T09:45:39.642Z,21.48
2022-09-02T09:46:39.595Z,21.45
2022-09-02T09:47:39.612Z,21.27
2022-09-02T09:48:39.578Z,21.39
2022-09-02T09:49:39.566Z,21.69
2022-09-02T09:50:39.556Z,21.79
2022-09-02T09:51:49.672Z,21.92
2022-09-02T09:52:40.570Z,22.11
2022-09-02T09:53:39.540Z,22.32
2022-09-02T09:54:39.535Z,22.33
2022-09-02T09:55:39.914Z,22.62
2022-09-02T09:56:40.518Z,22.44
2022-09-02T09:57:39.544Z,22.36
2022-09-02T09:58:39.506Z,21.66
2022-09-02T09:59:39.500Z,21.48
2022-09-02T10:00:39.515Z,21.58
2022-09-02T10:01:39.483Z,21.89
2022-09-02T10:02:39.552Z,22.26
2022-09-02T10:03:39.472Z,22.25
2022-09-02T10:04:43.411Z,22.45
2022-09-02T10:05:40.458Z,22.78
2022-09-02T10:06:39.444Z,22.81
2022-09-02T10:07:39.646Z,22.72
2022-09-02T10:08:39.465Z,22.55
2022-09-02T10:09:39.481Z,22.70
2022-09-02T10:10:39.512Z,22.87
2022-09-02T10:11:39.435Z,22.75
2022-09-02T10:12:39.454Z,22.83
2022-09-02T10:13:39.392Z,23.00
2022-09-02T10:14:39.399Z,23.17
2022-09-02T10:15:40.380Z,23.17
2022-09-02T10:16:39.404Z,23.15
2022-09-02T10:17:39.418Z,23.10
2022-09-02T10:18:39.391Z,22.99
2022-09-02T10:19:39.339Z,22.62
2022-09-02T10:20:48.396Z,22.39
2022-09-02T10:21:45.030Z,22.44
2022-09-02T10:22:58.487Z,22.50
2022-09-02T10:23:40.313Z,22.36
2022-09-02T10:24:39.314Z,22.30
2022-09-02T10:25:39.295Z,22.28
2022-09-02T10:26:39.314Z,22.15
2022-09-02T10:27:39.304Z,22.18
2022-09-02T10:28:39.277Z,22.41
2022-09-02T10:29:39.268Z,22.47
2022-09-02T10:30:39.264Z,22.59
2022-09-02T10:31:39.295Z,22.45
2022-09-02T10:32:39.282Z,22.48
2022-09-02T10:33:39.243Z,22.75
2022-09-02T10:34:39.239Z,22.87
2022-09-02T10:35:39.227Z,22.84
2022-09-02T10:36:39.227Z,22.83
2022-09-02T10:37:39.233Z,22.85
2022-09-02T10:38:39.197Z,22.72
2022-09-02T10:39:39.194Z,22.48
2022-09-02T10:40:39.258Z,22.35
2022-09-02T10:41:39.233Z,21.95
2022-09-02T10:42:39.205Z,21.80
2022-09-02T10:43:39.168Z,21.61
2022-09-02T10:44:39.156Z,21.51
2022-09-02T10:45:39.151Z,21.30
2022-09-02T10:46:39.177Z,21.39
2022-09-02T10:47:39.188Z,21.32
2022-09-02T10:48:39.128Z,21.33
2022-09-02T10:49:39.120Z,21.20
2022-09-02T10:50:39.105Z,21.33
2022-09-02T10:51:39.102Z,21.45
2022-09-02T10:52:39.118Z,21.45
2022-09-02T10:53:39.089Z,21.66
2022-09-02T10:54:39.077Z,21.51
2022-09-02T10:55:39.075Z,21.46
2022-09-02T10:56:39.053Z,21.72
2022-09-02T10:57:40.077Z,21.99
2022-09-02T10:58:39.047Z,22.22
2022-09-02T10:59:39.049Z,22.32
2022-09-02T11:00:39.067Z,22.60
2022-09-02T11:01:39.512Z,22.85
2022-09-02T11:02:39.041Z,23.27
2022-09-02T11:03:39.051Z,23.34
2022-09-02T11:04:39.003Z,22.99
2022-09-02T11:05:40.011Z,22.85
2022-09-02T11:06:58.823Z,22.90
2022-09-02T11:07:41.019Z,22.83
2022-09-02T11:08:38.997Z,22.85
2022-09-02T11:09:38.969Z,22.98
2022-09-02T11:10:38.971Z,23.10
2022-09-02T11:11:38.968Z,23.05
2022-09-02T11:12:38.979Z,23.27
2022-09-02T11:13:38.939Z,23.37
2022-09-02T11:14:38.935Z,23.36
2022-09-02T11:15:38.932Z,23.06
2022-09-02T11:16:38.928Z,22.53
2022-09-02T11:17:38.952Z,22.55
2022-09-02T11:18:38.902Z,22.63
2022-09-02T11:19:38.930Z,22.59
2022-09-02T11:20:38.889Z,22.54
2022-09-02T11:21:38.883Z,22.80
2022-09-02T11:22:38.905Z,23.00
2022-09-02T11:23:38.871Z,23.41
2022-09-02T11:24:40.348Z,23.32
2022-09-02T11:25:38.854Z,23.50
2022-09-02T11:26:38.842Z,23.50
2022-09-02T11:27:42.596Z,23.58
2022-09-02T11:28:39.823Z,23.51
2022-09-02T11:29:38.819Z,23.32
2022-09-02T11:30:38.855Z,23.09
2022-09-02T11:31:39.303Z,22.84
2022-09-02T11:32:39.821Z,22.59
2022-09-02T11:33:38.789Z,22.32
2022-09-02T11:34:38.784Z,22.17
2022-09-02T11:35:38.788Z,22.29
2022-09-02T11:36:38.775Z,22.41
2022-09-02T11:37:38.778Z,22.84
2022-09-02T11:38:38.745Z,22.59
2022-09-02T11:39:54.175Z,22.68
2022-09-02T11:40:40.912Z,22.36
2022-09-02T11:41:38.747Z,22.11
2022-09-02T11:42:38.750Z,22.14
2022-09-02T11:43:38.708Z,22.07
2022-09-02T11:44:38.704Z,22.04
2022-09-02T11:45:38.724Z,22.25
2022-09-02T11:46:38.803Z,22.20
2022-09-02T11:47:39.166Z,22.22
2022-09-02T11:48:39.675Z,22.38
2022-09-02T11:49:38.673Z,22.38
2022-09-02T11:50:39.456Z,22.36
2022-09-02T11:51:39.647Z,22.30
2022-09-02T11:52:38.671Z,22.25
2022-09-02T11:53:38.636Z,22.28
2022-09-02T11:54:38.631Z,22.38
2022-09-02T11:55:38.657Z,22.20
2022-09-02T11:56:38.616Z,22.22
2022-09-02T11:57:38.605Z,22.26
2022-09-02T11:58:38.622Z,22.63
2022-09-02T11:59:38.593Z,22.90
2022-09-02T12:00:38.587Z,22.99
2022-09-02T12:01:44.039Z,22.94
2022-09-02T12:02:39.565Z,22.76
2022-09-02T12:03:52.082Z,22.69
2022-09-02T12:05:00.005Z,22.69
2022-09-02T12:05:40.636Z,22.81
2022-09-02T12:06:38.682Z,22.60
2022-09-02T12:07:38.526Z,22.53
2022-09-02T12:08:38.545Z,22.53
2022-09-02T12:09:38.538Z,22.68
2022-09-02T12:10:38.509Z,22.63
2022-09-02T12:11:38.501Z,22.54
2022-09-02T12:12:38.526Z,22.48
2022-09-02T12:13:38.957Z,22.60
2022-09-02T12:14:38.547Z,22.70
2022-09-02T12:15:38.508Z,22.80
2022-09-02T12:16:38.475Z,22.85
2022-09-02T12:17:38.451Z,22.80
2022-09-02T12:18:39.589Z,23.17
2022-09-02T12:19:38.443Z,23.40
2022-09-02T12:20:38.449Z,23.59
2022-09-02T12:21:38.437Z,23.69
2022-09-02T12:22:38.419Z,23.87
2022-09-02T12:23:38.439Z,23.98
2022-09-02T12:24:38.410Z,24.02
2022-09-02T12:25:38.406Z,23.65
2022-09-02T12:26:38.393Z,23.41
2022-09-02T12:27:38.394Z,23.25
2022-09-02T12:28:38.403Z,23.46
2022-09-02T12:29:39.834Z,23.47
2022-09-02T12:30:38.357Z,23.61
2022-09-02T12:31:38.433Z,23.62
2022-09-02T12:32:38.347Z,23.48
2022-09-02T12:33:38.377Z,23.31
2022-09-02T12:34:38.339Z,23.20
2022-09-02T12:35:38.402Z,23.03
2022-09-02T12:36:38.317Z,23.27
2022-09-02T12:37:38.310Z,23.48
2022-09-02T12:38:38.333Z,23.48
2022-09-02T12:39:38.296Z,23.41
2022-09-02T12:40:38.365Z,23.61
2022-09-02T12:41:38.283Z,23.61
2022-09-02T12:42:38.278Z,23.47
2022-09-02T12:43:38.289Z,23.68
2022-09-02T12:44:38.253Z,23.95
2022-09-02T12:45:38.243Z,24.40
2022-09-02T12:46:38.313Z,24.65
2022-09-02T12:47:38.241Z,24.98
2022-09-02T12:48:39.274Z,25.16
2022-09-02T12:49:38.230Z,25.50
2022-09-02T12:50:38.219Z,25.65
2022-09-02T12:51:38.209Z,25.41
2022-09-02T12:52:38.196Z,25.04
2022-09-02T12:53:38.227Z,24.69
2022-09-02T12:54:38.185Z,23.66
2022-09-02T12:55:38.191Z,23.02